sensor_id;sensor_type;location;lat;lon;timestamp;P1;durP1;ratioP1;P2;durP2;ratioP2
38222;SDS011;24024;51.186;6.458;2023-08-07T00:01:22;13.05;;;2.70;;
38222;SDS011;24024;51.186;6.458;2023-08-07T00:03:49;15.00;;;2.55;;
38222;SDS011;24024;51.186;6.458;2023-08-07T00:06:16;16.98;;;4.22;;
38222;SDS011;24024;51.186;6.458;2023-08-07T00:08:44;15.18;;;2.67;;
38222;SDS011;24024;51.186;6.458;2023-08-07T00:11:12;11.55;;;2.70;;
38222;SDS011;24024;51.186;6.458;2023-08-07T00:13:39;14.02;;;2.85;;
38222;SDS011;24024;51.186;6.458;2023-08-07T00:16:06;10.73;;;2.50;;
38222;SDS011;24024;51.186;6.458;2023-08-07T00:18:37;12.93;;;3.10;;
38222;SDS011;24024;51.186;6.458;2023-08-07T00:21:03;9.70;;;2.47;;
38222;SDS011;24024;51.186;6.458;2023-08-07T00:23:30;11.68;;;2.95;;
38222;SDS011;24024;51.186;6.458;2023-08-07T00:25:59;11.73;;;2.95;;
38222;SDS011;24024;51.186;6.458;2023-08-07T00:28:25;9.90;;;2.75;;
38222;SDS011;24024;51.186;6.458;2023-08-07T00:30:52;13.30;;;2.85;;
38222;SDS011;24024;51.186;6.458;2023-08-07T00:33:21;10.70;;;2.67;;
38222;SDS011;24024;51.186;6.458;2023-08-07T00:35:48;11.20;;;2.65;;
38222;SDS011;24024;51.186;6.458;2023-08-07T00:38:17;15.25;;;3.25;;
38222;SDS011;24024;51.186;6.458;2023-08-07T00:40:44;14.77;;;2.78;;
38222;SDS011;24024;51.186;6.458;2023-08-07T00:43:13;9.93;;;2.78;;
38222;SDS011;24024;51.186;6.458;2023-08-07T00:45:41;10.40;;;2.80;;
38222;SDS011;24024;51.186;6.458;2023-08-07T00:48:09;14.45;;;3.15;;
38222;SDS011;24024;51.186;6.458;2023-08-07T00:50:38;14.90;;;3.40;;
38222;SDS011;24024;51.186;6.458;2023-08-07T00:53:12;14.73;;;3.20;;
38222;SDS011;24024;51.186;6.458;2023-08-07T00:55:42;13.30;;;3.00;;
38222;SDS011;24024;51.186;6.458;2023-08-07T00:58:11;14.88;;;3.22;;
38222;SDS011;24024;51.186;6.458;2023-08-07T01:00:38;14.70;;;3.28;;
38222;SDS011;24024;51.186;6.458;2023-08-07T01:03:08;12.70;;;3.45;;
38222;SDS011;24024;51.186;6.458;2023-08-07T01:05:37;11.63;;;3.33;;
38222;SDS011;24024;51.186;6.458;2023-08-07T01:08:06;9.55;;;3.05;;
38222;SDS011;24024;51.186;6.458;2023-08-07T01:13:35;15.73;;;3.40;;
38222;SDS011;24024;51.186;6.458;2023-08-07T01:16:13;13.52;;;3.15;;
38222;SDS011;24024;51.186;6.458;2023-08-07T01:18:49;12.98;;;3.85;;
38222;SDS011;24024;51.186;6.458;2023-08-07T01:21:18;12.38;;;3.40;;
38222;SDS011;24024;51.186;6.458;2023-08-07T01:23:48;13.00;;;3.20;;
38222;SDS011;24024;51.186;6.458;2023-08-07T01:26:16;13.82;;;3.50;;
38222;SDS011;24024;51.186;6.458;2023-08-07T01:29:10;15.40;;;3.63;;
38222;SDS011;24024;51.186;6.458;2023-08-07T01:31:38;12.23;;;3.58;;
38222;SDS011;24024;51.186;6.458;2023-08-07T01:34:07;15.18;;;3.38;;
38222;SDS011;24024;51.186;6.458;2023-08-07T01:36:36;12.57;;;3.53;;
38222;SDS011;24024;51.186;6.458;2023-08-07T01:39:09;11.73;;;3.83;;
38222;SDS011;24024;51.186;6.458;2023-08-07T01:41:41;14.25;;;3.60;;
38222;SDS011;24024;51.186;6.458;2023-08-07T01:44:08;14.75;;;3.65;;
38222;SDS011;24024;51.186;6.458;2023-08-07T01:46:35;14.15;;;4.25;;
38222;SDS011;24024;51.186;6.458;2023-08-07T01:49:02;15.65;;;3.75;;
38222;SDS011;24024;51.186;6.458;2023-08-07T01:51:29;14.15;;;3.60;;
38222;SDS011;24024;51.186;6.458;2023-08-07T01:53:58;14.10;;;4.20;;
38222;SDS011;24024;51.186;6.458;2023-08-07T01:56:24;12.45;;;4.43;;
38222;SDS011;24024;51.186;6.458;2023-08-07T01:58:51;12.38;;;3.45;;
38222;SDS011;24024;51.186;6.458;2023-08-07T02:01:20;10.55;;;3.75;;
38222;SDS011;24024;51.186;6.458;2023-08-07T02:03:49;12.23;;;3.65;;
38222;SDS011;24024;51.186;6.458;2023-08-07T02:06:16;12.70;;;3.50;;
38222;SDS011;24024;51.186;6.458;2023-08-07T02:08:47;15.32;;;3.28;;
38222;SDS011;24024;51.186;6.458;2023-08-07T02:11:19;12.25;;;3.22;;
38222;SDS011;24024;51.186;6.458;2023-08-07T02:13:45;17.60;;;3.67;;
38222;SDS011;24024;51.186;6.458;2023-08-07T02:16:12;11.70;;;3.03;;
38222;SDS011;24024;51.186;6.458;2023-08-07T02:18:39;14.52;;;3.10;;
38222;SDS011;24024;51.186;6.458;2023-08-07T02:21:06;16.27;;;3.13;;
38222;SDS011;24024;51.186;6.458;2023-08-07T02:23:32;13.85;;;3.33;;
38222;SDS011;24024;51.186;6.458;2023-08-07T02:26:01;13.55;;;3.00;;
38222;SDS011;24024;51.186;6.458;2023-08-07T02:28:32;16.45;;;3.17;;
38222;SDS011;24024;51.186;6.458;2023-08-07T02:31:04;12.73;;;2.92;;
38222;SDS011;24024;51.186;6.458;2023-08-07T02:33:30;13.57;;;2.75;;
38222;SDS011;24024;51.186;6.458;2023-08-07T02:35:58;10.13;;;2.60;;
38222;SDS011;24024;51.186;6.458;2023-08-07T02:38:25;14.25;;;3.15;;
38222;SDS011;24024;51.186;6.458;2023-08-07T02:40:52;14.13;;;3.33;;
38222;SDS011;24024;51.186;6.458;2023-08-07T02:43:21;13.23;;;2.90;;
38222;SDS011;24024;51.186;6.458;2023-08-07T02:45:48;10.55;;;3.17;;
38222;SDS011;24024;51.186;6.458;2023-08-07T02:48:17;15.02;;;3.22;;
38222;SDS011;24024;51.186;6.458;2023-08-07T02:50:44;16.75;;;3.30;;
38222;SDS011;24024;51.186;6.458;2023-08-07T02:53:11;12.05;;;2.65;;
38222;SDS011;24024;51.186;6.458;2023-08-07T02:55:42;12.95;;;3.13;;
38222;SDS011;24024;51.186;6.458;2023-08-07T02:58:12;12.57;;;2.67;;
38222;SDS011;24024;51.186;6.458;2023-08-07T03:00:39;14.32;;;3.47;;
38222;SDS011;24024;51.186;6.458;2023-08-07T03:03:08;10.48;;;2.80;;
38222;SDS011;24024;51.186;6.458;2023-08-07T03:05:34;16.23;;;3.05;;
38222;SDS011;24024;51.186;6.458;2023-08-07T03:08:04;11.82;;;3.78;;
38222;SDS011;24024;51.186;6.458;2023-08-07T03:10:33;17.40;;;3.80;;
38222;SDS011;24024;51.186;6.458;2023-08-07T03:13:04;10.35;;;2.83;;
38222;SDS011;24024;51.186;6.458;2023-08-07T03:15:35;13.23;;;3.33;;
38222;SDS011;24024;51.186;6.458;2023-08-07T03:18:02;11.40;;;2.60;;
38222;SDS011;24024;51.186;6.458;2023-08-07T03:20:29;18.52;;;3.50;;
38222;SDS011;24024;51.186;6.458;2023-08-07T03:22:56;11.77;;;3.17;;
38222;SDS011;24024;51.186;6.458;2023-08-07T03:25:25;10.30;;;2.83;;
38222;SDS011;24024;51.186;6.458;2023-08-07T03:27:51;11.73;;;2.45;;
38222;SDS011;24024;51.186;6.458;2023-08-07T03:30:18;14.10;;;3.92;;
38222;SDS011;24024;51.186;6.458;2023-08-07T03:32:47;9.20;;;2.60;;
38222;SDS011;24024;51.186;6.458;2023-08-07T03:35:16;9.50;;;2.53;;
38222;SDS011;24024;51.186;6.458;2023-08-07T03:37:45;12.38;;;3.38;;
38222;SDS011;24024;51.186;6.458;2023-08-07T03:40:14;10.65;;;2.88;;
38222;SDS011;24024;51.186;6.458;2023-08-07T03:42:41;11.20;;;3.17;;
38222;SDS011;24024;51.186;6.458;2023-08-07T03:45:08;13.95;;;4.28;;
38222;SDS011;24024;51.186;6.458;2023-08-07T03:47:37;16.70;;;3.45;;
38222;SDS011;24024;51.186;6.458;2023-08-07T03:50:04;13.30;;;3.15;;
38222;SDS011;24024;51.186;6.458;2023-08-07T03:52:34;13.90;;;3.10;;
38222;SDS011;24024;51.186;6.458;2023-08-07T03:55:01;12.82;;;3.80;;
38222;SDS011;24024;51.186;6.458;2023-08-07T03:57:30;12.95;;;3.40;;
38222;SDS011;24024;51.186;6.458;2023-08-07T03:59:56;11.18;;;3.05;;
38222;SDS011;24024;51.186;6.458;2023-08-07T04:02:24;11.02;;;3.15;;
38222;SDS011;24024;51.186;6.458;2023-08-07T04:04:54;14.70;;;3.33;;
38222;SDS011;24024;51.186;6.458;2023-08-07T04:07:23;14.98;;;3.40;;
38222;SDS011;24024;51.186;6.458;2023-08-07T04:09:50;9.60;;;3.13;;
38222;SDS011;24024;51.186;6.458;2023-08-07T04:12:17;10.32;;;3.03;;
38222;SDS011;24024;51.186;6.458;2023-08-07T04:14:46;11.70;;;4.28;;
38222;SDS011;24024;51.186;6.458;2023-08-07T04:17:13;15.80;;;3.33;;
38222;SDS011;24024;51.186;6.458;2023-08-07T04:19:40;18.33;;;4.70;;
38222;SDS011;24024;51.186;6.458;2023-08-07T04:22:06;12.82;;;3.75;;
38222;SDS011;24024;51.186;6.458;2023-08-07T04:24:36;12.95;;;3.40;;
38222;SDS011;24024;51.186;6.458;2023-08-07T04:27:02;13.35;;;3.60;;
38222;SDS011;24024;51.186;6.458;2023-08-07T04:29:29;12.15;;;3.45;;
38222;SDS011;24024;51.186;6.458;2023-08-07T04:31:56;11.60;;;3.50;;
38222;SDS011;24024;51.186;6.458;2023-08-07T04:34:25;15.85;;;3.97;;
38222;SDS011;24024;51.186;6.458;2023-08-07T04:36:52;12.25;;;3.40;;
38222;SDS011;24024;51.186;6.458;2023-08-07T04:39:20;10.63;;;3.22;;
38222;SDS011;24024;51.186;6.458;2023-08-07T04:41:52;11.82;;;3.63;;
38222;SDS011;24024;51.186;6.458;2023-08-07T04:44:19;14.15;;;3.97;;
38222;SDS011;24024;51.186;6.458;2023-08-07T04:46:48;15.82;;;3.42;;
38222;SDS011;24024;51.186;6.458;2023-08-07T04:49:15;11.25;;;3.50;;
38222;SDS011;24024;51.186;6.458;2023-08-07T04:51:44;11.05;;;3.17;;
38222;SDS011;24024;51.186;6.458;2023-08-07T04:54:13;13.75;;;3.40;;
38222;SDS011;24024;51.186;6.458;2023-08-07T04:56:42;10.90;;;3.90;;
38222;SDS011;24024;51.186;6.458;2023-08-07T04:59:10;9.73;;;3.42;;
38222;SDS011;24024;51.186;6.458;2023-08-07T05:01:40;9.38;;;3.42;;
38222;SDS011;24024;51.186;6.458;2023-08-07T05:04:07;12.40;;;3.58;;
38222;SDS011;24024;51.186;6.458;2023-08-07T05:06:36;13.68;;;3.70;;
38222;SDS011;24024;51.186;6.458;2023-08-07T05:09:05;13.32;;;3.88;;
38222;SDS011;24024;51.186;6.458;2023-08-07T05:11:34;12.70;;;3.67;;
38222;SDS011;24024;51.186;6.458;2023-08-07T05:14:01;11.85;;;3.70;;
38222;SDS011;24024;51.186;6.458;2023-08-07T05:16:27;11.63;;;3.80;;
38222;SDS011;24024;51.186;6.458;2023-08-07T05:18:56;13.40;;;3.75;;
38222;SDS011;24024;51.186;6.458;2023-08-07T05:21:23;16.77;;;4.78;;
38222;SDS011;24024;51.186;6.458;2023-08-07T05:23:52;14.15;;;3.58;;
38222;SDS011;24024;51.186;6.458;2023-08-07T05:26:21;13.45;;;3.47;;
38222;SDS011;24024;51.186;6.458;2023-08-07T05:28:50;13.20;;;3.38;;
38222;SDS011;24024;51.186;6.458;2023-08-07T05:31:22;12.18;;;3.42;;
38222;SDS011;24024;51.186;6.458;2023-08-07T05:33:49;13.15;;;3.47;;
38222;SDS011;24024;51.186;6.458;2023-08-07T05:36:16;10.30;;;3.42;;
38222;SDS011;24024;51.186;6.458;2023-08-07T05:38:43;13.52;;;3.42;;
38222;SDS011;24024;51.186;6.458;2023-08-07T05:41:09;14.05;;;3.70;;
38222;SDS011;24024;51.186;6.458;2023-08-07T05:43:36;14.65;;;4.38;;
38222;SDS011;24024;51.186;6.458;2023-08-07T05:46:03;12.60;;;3.55;;
38222;SDS011;24024;51.186;6.458;2023-08-07T05:48:30;13.45;;;3.67;;
38222;SDS011;24024;51.186;6.458;2023-08-07T05:51:01;13.98;;;3.70;;
38222;SDS011;24024;51.186;6.458;2023-08-07T05:53:30;11.07;;;3.70;;
38222;SDS011;24024;51.186;6.458;2023-08-07T05:55:59;11.82;;;3.80;;
38222;SDS011;24024;51.186;6.458;2023-08-07T05:58:26;10.82;;;3.53;;
38222;SDS011;24024;51.186;6.458;2023-08-07T06:00:53;15.02;;;4.13;;
38222;SDS011;24024;51.186;6.458;2023-08-07T06:03:22;10.80;;;3.90;;
38222;SDS011;24024;51.186;6.458;2023-08-07T06:05:49;11.18;;;4.28;;
38222;SDS011;24024;51.186;6.458;2023-08-07T06:08:16;9.68;;;3.42;;
38222;SDS011;24024;51.186;6.458;2023-08-07T06:10:42;14.70;;;3.97;;
38222;SDS011;24024;51.186;6.458;2023-08-07T06:13:09;15.45;;;4.32;;
38222;SDS011;24024;51.186;6.458;2023-08-07T06:15:51;11.25;;;3.85;;
38222;SDS011;24024;51.186;6.458;2023-08-07T06:18:18;12.48;;;4.80;;
38222;SDS011;24024;51.186;6.458;2023-08-07T06:20:45;12.48;;;4.18;;
38222;SDS011;24024;51.186;6.458;2023-08-07T06:23:12;11.35;;;4.20;;
38222;SDS011;24024;51.186;6.458;2023-08-07T06:25:39;13.85;;;4.07;;
38222;SDS011;24024;51.186;6.458;2023-08-07T06:28:06;15.73;;;4.07;;
38222;SDS011;24024;51.186;6.458;2023-08-07T06:30:32;15.85;;;4.03;;
38222;SDS011;24024;51.186;6.458;2023-08-07T06:32:59;18.63;;;4.10;;
38222;SDS011;24024;51.186;6.458;2023-08-07T06:35:28;11.35;;;4.20;;
38222;SDS011;24024;51.186;6.458;2023-08-07T06:38:05;13.82;;;4.40;;
38222;SDS011;24024;51.186;6.458;2023-08-07T06:40:34;14.13;;;4.38;;
38222;SDS011;24024;51.186;6.458;2023-08-07T06:43:01;11.38;;;3.92;;
38222;SDS011;24024;51.186;6.458;2023-08-07T06:45:28;11.88;;;3.75;;
38222;SDS011;24024;51.186;6.458;2023-08-07T06:47:57;10.68;;;3.95;;
38222;SDS011;24024;51.186;6.458;2023-08-07T06:50:26;14.75;;;3.92;;
38222;SDS011;24024;51.186;6.458;2023-08-07T06:52:53;13.63;;;4.25;;
38222;SDS011;24024;51.186;6.458;2023-08-07T06:55:20;13.75;;;4.40;;
38222;SDS011;24024;51.186;6.458;2023-08-07T06:57:47;13.75;;;4.28;;
38222;SDS011;24024;51.186;6.458;2023-08-07T07:00:16;15.00;;;4.75;;
38222;SDS011;24024;51.186;6.458;2023-08-07T07:02:45;10.98;;;3.78;;
38222;SDS011;24024;51.186;6.458;2023-08-07T07:05:12;12.43;;;4.03;;
38222;SDS011;24024;51.186;6.458;2023-08-07T07:07:39;14.60;;;4.68;;
38222;SDS011;24024;51.186;6.458;2023-08-07T07:10:08;11.55;;;4.10;;
38222;SDS011;24024;51.186;6.458;2023-08-07T07:12:36;12.57;;;4.20;;
38222;SDS011;24024;51.186;6.458;2023-08-07T07:15:03;12.32;;;3.55;;
38222;SDS011;24024;51.186;6.458;2023-08-07T07:17:30;12.00;;;4.55;;
38222;SDS011;24024;51.186;6.458;2023-08-07T07:19:57;12.32;;;3.97;;
38222;SDS011;24024;51.186;6.458;2023-08-07T07:22:31;12.00;;;4.07;;
38222;SDS011;24024;51.186;6.458;2023-08-07T07:25:03;12.88;;;4.05;;
38222;SDS011;24024;51.186;6.458;2023-08-07T07:27:30;11.18;;;3.97;;
38222;SDS011;24024;51.186;6.458;2023-08-07T07:29:59;13.60;;;3.70;;
38222;SDS011;24024;51.186;6.458;2023-08-07T07:32:28;16.50;;;4.13;;
38222;SDS011;24024;51.186;6.458;2023-08-07T07:34:55;16.77;;;4.68;;
38222;SDS011;24024;51.186;6.458;2023-08-07T07:37:22;15.93;;;6.00;;
38222;SDS011;24024;51.186;6.458;2023-08-07T07:39:49;17.10;;;4.78;;
38222;SDS011;24024;51.186;6.458;2023-08-07T07:42:15;16.70;;;3.90;;
38222;SDS011;24024;51.186;6.458;2023-08-07T07:44:43;15.27;;;4.13;;
38222;SDS011;24024;51.186;6.458;2023-08-07T07:47:10;15.13;;;4.22;;
38222;SDS011;24024;51.186;6.458;2023-08-07T07:49:39;12.40;;;4.38;;
38222;SDS011;24024;51.186;6.458;2023-08-07T07:52:13;15.05;;;4.18;;
38222;SDS011;24024;51.186;6.458;2023-08-07T07:54:42;12.65;;;3.85;;
38222;SDS011;24024;51.186;6.458;2023-08-07T07:57:09;14.43;;;4.35;;
38222;SDS011;24024;51.186;6.458;2023-08-07T07:59:36;16.75;;;3.90;;
38222;SDS011;24024;51.186;6.458;2023-08-07T08:02:08;11.35;;;3.10;;
38222;SDS011;24024;51.186;6.458;2023-08-07T08:04:35;13.15;;;3.75;;
38222;SDS011;24024;51.186;6.458;2023-08-07T08:07:03;13.82;;;3.63;;
38222;SDS011;24024;51.186;6.458;2023-08-07T08:09:30;15.15;;;3.55;;
38222;SDS011;24024;51.186;6.458;2023-08-07T08:11:59;15.05;;;3.50;;
38222;SDS011;24024;51.186;6.458;2023-08-07T08:14:29;12.93;;;3.50;;
38222;SDS011;24024;51.186;6.458;2023-08-07T08:17:18;12.40;;;3.88;;
38222;SDS011;24024;51.186;6.458;2023-08-07T08:19:47;14.25;;;3.80;;
38222;SDS011;24024;51.186;6.458;2023-08-07T08:22:16;14.68;;;3.67;;
38222;SDS011;24024;51.186;6.458;2023-08-07T08:24:44;16.17;;;3.30;;
38222;SDS011;24024;51.186;6.458;2023-08-07T08:27:10;13.88;;;3.75;;
38222;SDS011;24024;51.186;6.458;2023-08-07T08:29:37;12.05;;;3.03;;
38222;SDS011;24024;51.186;6.458;2023-08-07T08:32:06;15.07;;;3.15;;
38222;SDS011;24024;51.186;6.458;2023-08-07T08:34:35;10.02;;;2.97;;
38222;SDS011;24024;51.186;6.458;2023-08-07T08:37:02;10.43;;;2.53;;
38222;SDS011;24024;51.186;6.458;2023-08-07T08:39:31;10.40;;;2.53;;
38222;SDS011;24024;51.186;6.458;2023-08-07T08:42:03;12.45;;;2.92;;
38222;SDS011;24024;51.186;6.458;2023-08-07T08:44:33;8.85;;;2.50;;
38222;SDS011;24024;51.186;6.458;2023-08-07T08:47:05;13.20;;;2.83;;
38222;SDS011;24024;51.186;6.458;2023-08-07T08:49:35;10.45;;;2.60;;
38222;SDS011;24024;51.186;6.458;2023-08-07T08:52:07;12.48;;;3.20;;
38222;SDS011;24024;51.186;6.458;2023-08-07T08:54:35;9.40;;;2.70;;
38222;SDS011;24024;51.186;6.458;2023-08-07T08:57:05;13.82;;;2.92;;
38222;SDS011;24024;51.186;6.458;2023-08-07T08:59:35;11.48;;;2.67;;
38222;SDS011;24024;51.186;6.458;2023-08-07T09:02:02;12.57;;;2.45;;
38222;SDS011;24024;51.186;6.458;2023-08-07T09:04:36;10.75;;;2.60;;
38222;SDS011;24024;51.186;6.458;2023-08-07T09:07:07;10.93;;;2.40;;
38222;SDS011;24024;51.186;6.458;2023-08-07T09:09:36;10.07;;;2.40;;
38222;SDS011;24024;51.186;6.458;2023-08-07T09:12:04;12.95;;;2.10;;
38222;SDS011;24024;51.186;6.458;2023-08-07T09:14:31;6.68;;;2.17;;
38222;SDS011;24024;51.186;6.458;2023-08-07T09:17:02;12.40;;;2.55;;
38222;SDS011;24024;51.186;6.458;2023-08-07T09:19:29;11.23;;;2.10;;
38222;SDS011;24024;51.186;6.458;2023-08-07T09:21:56;8.25;;;2.38;;
38222;SDS011;24024;51.186;6.458;2023-08-07T09:24:23;9.68;;;2.83;;
38222;SDS011;24024;51.186;6.458;2023-08-07T09:26:50;11.45;;;2.25;;
38222;SDS011;24024;51.186;6.458;2023-08-07T09:29:20;10.75;;;2.33;;
38222;SDS011;24024;51.186;6.458;2023-08-07T09:31:50;11.25;;;2.63;;
38222;SDS011;24024;51.186;6.458;2023-08-07T09:34:19;8.70;;;2.30;;
38222;SDS011;24024;51.186;6.458;2023-08-07T09:36:49;12.13;;;2.47;;
38222;SDS011;24024;51.186;6.458;2023-08-07T09:39:15;8.13;;;2.42;;
38222;SDS011;24024;51.186;6.458;2023-08-07T09:41:54;9.23;;;2.25;;
38222;SDS011;24024;51.186;6.458;2023-08-07T09:44:24;13.63;;;2.45;;
38222;SDS011;24024;51.186;6.458;2023-08-07T09:46:51;9.50;;;2.40;;
38222;SDS011;24024;51.186;6.458;2023-08-07T09:49:18;13.52;;;2.67;;
38222;SDS011;24024;51.186;6.458;2023-08-07T09:51:46;11.52;;;2.35;;
38222;SDS011;24024;51.186;6.458;2023-08-07T09:54:17;7.05;;;2.10;;
38222;SDS011;24024;51.186;6.458;2023-08-07T09:56:43;8.95;;;2.20;;
38222;SDS011;24024;51.186;6.458;2023-08-07T09:59:16;10.13;;;2.05;;
38222;SDS011;24024;51.186;6.458;2023-08-07T10:01:45;9.18;;;2.03;;
38222;SDS011;24024;51.186;6.458;2023-08-07T10:04:12;12.00;;;2.35;;
38222;SDS011;24024;51.186;6.458;2023-08-07T10:06:42;7.88;;;2.13;;
38222;SDS011;24024;51.186;6.458;2023-08-07T10:09:10;11.68;;;2.22;;
38222;SDS011;24024;51.186;6.458;2023-08-07T10:11:38;8.77;;;2.42;;
38222;SDS011;24024;51.186;6.458;2023-08-07T10:14:06;5.20;;;1.92;;
38222;SDS011;24024;51.186;6.458;2023-08-07T10:16:39;11.55;;;2.25;;
38222;SDS011;24024;51.186;6.458;2023-08-07T10:19:07;8.02;;;1.75;;
38222;SDS011;24024;51.186;6.458;2023-08-07T10:21:35;14.18;;;2.55;;
38222;SDS011;24024;51.186;6.458;2023-08-07T10:24:06;7.45;;;1.70;;
38222;SDS011;24024;51.186;6.458;2023-08-07T10:26:43;8.00;;;2.00;;
38222;SDS011;24024;51.186;6.458;2023-08-07T10:29:13;8.02;;;1.80;;
38222;SDS011;24024;51.186;6.458;2023-08-07T10:31:43;9.48;;;1.50;;
38222;SDS011;24024;51.186;6.458;2023-08-07T10:34:16;7.00;;;1.50;;
38222;SDS011;24024;51.186;6.458;2023-08-07T10:36:43;7.20;;;1.95;;
38222;SDS011;24024;51.186;6.458;2023-08-07T10:39:11;9.27;;;1.90;;
38222;SDS011;24024;51.186;6.458;2023-08-07T10:41:39;6.35;;;1.55;;
38222;SDS011;24024;51.186;6.458;2023-08-07T10:44:17;7.10;;;1.50;;
38222;SDS011;24024;51.186;6.458;2023-08-07T10:46:56;5.70;;;2.33;;
38222;SDS011;24024;51.186;6.458;2023-08-07T10:49:31;14.70;;;5.60;;
38222;SDS011;24024;51.186;6.458;2023-08-07T10:52:11;8.57;;;2.30;;
38222;SDS011;24024;51.186;6.458;2023-08-07T10:54:44;18.70;;;7.38;;
38222;SDS011;24024;51.186;6.458;2023-08-07T10:57:16;12.88;;;3.38;;
38222;SDS011;24024;51.186;6.458;2023-08-07T11:02:27;9.23;;;3.22;;
38222;SDS011;24024;51.186;6.458;2023-08-07T11:04:56;11.73;;;3.80;;
38222;SDS011;24024;51.186;6.458;2023-08-07T11:07:24;7.18;;;2.60;;
38222;SDS011;24024;51.186;6.458;2023-08-07T11:09:58;12.63;;;4.22;;
38222;SDS011;24024;51.186;6.458;2023-08-07T11:12:26;8.43;;;2.60;;
38222;SDS011;24024;51.186;6.458;2023-08-07T11:14:54;6.65;;;2.33;;
38222;SDS011;24024;51.186;6.458;2023-08-07T11:17:26;7.72;;;2.50;;
38222;SDS011;24024;51.186;6.458;2023-08-07T11:19:55;6.32;;;2.25;;
38222;SDS011;24024;51.186;6.458;2023-08-07T11:22:24;6.35;;;1.95;;
38222;SDS011;24024;51.186;6.458;2023-08-07T11:24:53;8.77;;;2.10;;
38222;SDS011;24024;51.186;6.458;2023-08-07T11:27:22;8.38;;;2.03;;
38222;SDS011;24024;51.186;6.458;2023-08-07T11:29:49;7.57;;;2.13;;
38222;SDS011;24024;51.186;6.458;2023-08-07T11:32:16;4.90;;;1.65;;
38222;SDS011;24024;51.186;6.458;2023-08-07T11:34:50;5.68;;;1.83;;
38222;SDS011;24024;51.186;6.458;2023-08-07T11:37:19;5.90;;;2.05;;
38222;SDS011;24024;51.186;6.458;2023-08-07T11:39:48;12.93;;;2.42;;
38222;SDS011;24024;51.186;6.458;2023-08-07T11:42:15;7.70;;;2.40;;
38222;SDS011;24024;51.186;6.458;2023-08-07T11:44:41;6.97;;;1.77;;
38222;SDS011;24024;51.186;6.458;2023-08-07T11:47:09;7.80;;;1.88;;
38222;SDS011;24024;51.186;6.458;2023-08-07T11:49:38;4.30;;;1.70;;
38222;SDS011;24024;51.186;6.458;2023-08-07T11:52:05;5.07;;;1.60;;
38222;SDS011;24024;51.186;6.458;2023-08-07T11:54:32;8.95;;;1.98;;
38222;SDS011;24024;51.186;6.458;2023-08-07T11:57:01;6.45;;;1.95;;
38222;SDS011;24024;51.186;6.458;2023-08-07T11:59:28;6.90;;;1.70;;
38222;SDS011;24024;51.186;6.458;2023-08-07T12:01:55;7.15;;;1.65;;
38222;SDS011;24024;51.186;6.458;2023-08-07T12:04:26;8.55;;;1.88;;
38222;SDS011;24024;51.186;6.458;2023-08-07T12:06:57;5.78;;;1.58;;
38222;SDS011;24024;51.186;6.458;2023-08-07T12:09:27;5.50;;;1.90;;
38222;SDS011;24024;51.186;6.458;2023-08-07T12:11:57;4.28;;;1.80;;
38222;SDS011;24024;51.186;6.458;2023-08-07T12:14:28;4.68;;;1.80;;
38222;SDS011;24024;51.186;6.458;2023-08-07T12:17:00;6.28;;;1.60;;
38222;SDS011;24024;51.186;6.458;2023-08-07T12:19:38;9.25;;;2.20;;
38222;SDS011;24024;51.186;6.458;2023-08-07T12:22:06;4.38;;;1.60;;
38222;SDS011;24024;51.186;6.458;2023-08-07T12:24:35;5.40;;;1.70;;
38222;SDS011;24024;51.186;6.458;2023-08-07T12:27:04;4.28;;;1.80;;
38222;SDS011;24024;51.186;6.458;2023-08-07T12:29:31;5.55;;;1.58;;
38222;SDS011;24024;51.186;6.458;2023-08-07T12:31:58;4.07;;;1.58;;
38222;SDS011;24024;51.186;6.458;2023-08-07T12:34:27;5.78;;;1.58;;
38222;SDS011;24024;51.186;6.458;2023-08-07T12:36:56;5.28;;;1.80;;
38222;SDS011;24024;51.186;6.458;2023-08-07T12:39:24;3.95;;;1.58;;
38222;SDS011;24024;51.186;6.458;2023-08-07T12:41:58;6.82;;;1.60;;
38222;SDS011;24024;51.186;6.458;2023-08-07T12:44:33;4.55;;;1.60;;
38222;SDS011;24024;51.186;6.458;2023-08-07T12:46:59;5.82;;;1.70;;
38222;SDS011;24024;51.186;6.458;2023-08-07T12:49:27;5.57;;;1.70;;
38222;SDS011;24024;51.186;6.458;2023-08-07T12:51:54;4.78;;;1.80;;
38222;SDS011;24024;51.186;6.458;2023-08-07T12:54:22;4.60;;;1.60;;
38222;SDS011;24024;51.186;6.458;2023-08-07T12:56:49;5.10;;;1.63;;
38222;SDS011;24024;51.186;6.458;2023-08-07T12:59:21;4.47;;;1.60;;
38222;SDS011;24024;51.186;6.458;2023-08-07T13:01:48;5.43;;;1.55;;
38222;SDS011;24024;51.186;6.458;2023-08-07T13:04:15;4.90;;;1.60;;
38222;SDS011;24024;51.186;6.458;2023-08-07T13:06:42;6.65;;;2.30;;
38222;SDS011;24024;51.186;6.458;2023-08-07T13:09:09;6.95;;;1.80;;
38222;SDS011;24024;51.186;6.458;2023-08-07T13:11:36;5.95;;;1.98;;
38222;SDS011;24024;51.186;6.458;2023-08-07T13:14:05;4.60;;;1.88;;
38222;SDS011;24024;51.186;6.458;2023-08-07T13:16:34;6.38;;;1.90;;
38222;SDS011;24024;51.186;6.458;2023-08-07T13:19:00;6.50;;;1.85;;
38222;SDS011;24024;51.186;6.458;2023-08-07T13:21:30;5.22;;;1.70;;
38222;SDS011;24024;51.186;6.458;2023-08-07T13:23:57;7.72;;;1.95;;
38222;SDS011;24024;51.186;6.458;2023-08-07T13:26:24;6.00;;;1.75;;
38222;SDS011;24024;51.186;6.458;2023-08-07T13:28:50;4.43;;;1.60;;
38222;SDS011;24024;51.186;6.458;2023-08-07T13:31:17;4.18;;;1.50;;
38222;SDS011;24024;51.186;6.458;2023-08-07T13:33:44;7.88;;;2.10;;
38222;SDS011;24024;51.186;6.458;2023-08-07T13:36:11;8.25;;;1.80;;
38222;SDS011;24024;51.186;6.458;2023-08-07T13:38:40;6.63;;;1.70;;
38222;SDS011;24024;51.186;6.458;2023-08-07T13:41:07;6.03;;;1.75;;
38222;SDS011;24024;51.186;6.458;2023-08-07T13:43:37;5.55;;;1.80;;
38222;SDS011;24024;51.186;6.458;2023-08-07T13:46:04;6.03;;;2.05;;
38222;SDS011;24024;51.186;6.458;2023-08-07T13:48:31;6.88;;;1.95;;
38222;SDS011;24024;51.186;6.458;2023-08-07T13:50:59;13.27;;;2.13;;
38222;SDS011;24024;51.186;6.458;2023-08-07T13:53:33;5.90;;;1.95;;
38222;SDS011;24024;51.186;6.458;2023-08-07T13:55:59;6.00;;;2.05;;
38222;SDS011;24024;51.186;6.458;2023-08-07T13:58:26;6.05;;;1.98;;
38222;SDS011;24024;51.186;6.458;2023-08-07T14:00:54;6.15;;;1.80;;
38222;SDS011;24024;51.186;6.458;2023-08-07T14:03:21;6.65;;;1.92;;
38222;SDS011;24024;51.186;6.458;2023-08-07T14:05:48;5.43;;;1.67;;
38222;SDS011;24024;51.186;6.458;2023-08-07T14:08:18;7.35;;;2.30;;
38222;SDS011;24024;51.186;6.458;2023-08-07T14:10:47;7.50;;;1.95;;
38222;SDS011;24024;51.186;6.458;2023-08-07T14:13:14;6.38;;;2.00;;
38222;SDS011;24024;51.186;6.458;2023-08-07T14:15:43;4.90;;;2.10;;
38222;SDS011;24024;51.186;6.458;2023-08-07T14:18:09;5.97;;;2.25;;
38222;SDS011;24024;51.186;6.458;2023-08-07T14:20:38;7.63;;;2.00;;
38222;SDS011;24024;51.186;6.458;2023-08-07T14:23:24;5.88;;;2.20;;
38222;SDS011;24024;51.186;6.458;2023-08-07T14:25:51;6.72;;;2.20;;
38222;SDS011;24024;51.186;6.458;2023-08-07T14:28:20;6.80;;;2.10;;
38222;SDS011;24024;51.186;6.458;2023-08-07T14:30:47;6.25;;;2.20;;
38222;SDS011;24024;51.186;6.458;2023-08-07T14:33:16;6.95;;;2.22;;
38222;SDS011;24024;51.186;6.458;2023-08-07T14:35:43;5.80;;;2.05;;
38222;SDS011;24024;51.186;6.458;2023-08-07T14:38:12;7.95;;;2.10;;
38222;SDS011;24024;51.186;6.458;2023-08-07T14:40:41;5.43;;;2.00;;
38222;SDS011;24024;51.186;6.458;2023-08-07T14:43:09;3.97;;;1.80;;
38222;SDS011;24024;51.186;6.458;2023-08-07T14:45:36;6.60;;;2.03;;
38222;SDS011;24024;51.186;6.458;2023-08-07T14:48:03;6.55;;;2.05;;
38222;SDS011;24024;51.186;6.458;2023-08-07T14:50:30;7.50;;;2.22;;
38222;SDS011;24024;51.186;6.458;2023-08-07T14:52:57;7.32;;;2.55;;